createdAt,value
2019-01-25T00:01:51.371Z,14.17
2019-01-25T00:04:19.897Z,14.43
2019-01-25T00:06:48.429Z,14.90
2019-01-25T00:09:17.005Z,13.37
2019-01-25T00:11:45.536Z,12.10
2019-01-25T00:14:14.124Z,13.63
2019-01-25T00:16:42.684Z,14.13
2019-01-25T00:19:11.224Z,13.07
2019-01-25T00:21:41.345Z,13.50
2019-01-25T00:24:09.873Z,14.87
2019-01-25T00:26:38.672Z,13.20
2019-01-25T00:29:07.220Z,12.23
2019-01-25T00:31:35.764Z,13.70
2019-01-25T00:34:04.313Z,13.70
2019-01-25T00:36:32.856Z,14.00
2019-01-25T00:39:01.413Z,13.90
2019-01-25T00:41:29.945Z,13.70
2019-01-25T00:43:58.508Z,13.53
2019-01-25T00:46:27.039Z,13.43
2019-01-25T00:48:56.588Z,15.97
2019-01-25T00:51:25.321Z,12.60
2019-01-25T00:53:53.845Z,13.87
2019-01-25T00:56:22.397Z,14.30
2019-01-25T00:58:50.921Z,13.30
2019-01-25T01:01:19.453Z,14.10
2019-01-25T01:03:48.012Z,14.63
2019-01-25T01:06:16.531Z,12.80
2019-01-25T01:08:45.082Z,14.60
2019-01-25T01:11:13.630Z,13.90
2019-01-25T01:13:42.268Z,14.43
2019-01-25T01:16:11.547Z,13.27
2019-01-25T01:18:40.229Z,14.30
2019-01-25T01:21:08.785Z,13.43
2019-01-25T01:23:37.342Z,13.30
2019-01-25T01:26:05.876Z,13.10
2019-01-25T01:28:34.433Z,14.03
2019-01-25T01:31:02.965Z,13.80
2019-01-25T01:33:31.537Z,12.23
2019-01-25T01:36:00.057Z,14.17
2019-01-25T01:38:28.621Z,14.80
2019-01-25T01:40:57.172Z,12.97
2019-01-25T01:43:25.710Z,13.23
2019-01-25T01:45:54.276Z,13.40
2019-01-25T01:48:22.805Z,13.47
2019-01-25T01:50:51.333Z,13.87
2019-01-25T01:53:19.876Z,14.23
2019-01-25T01:55:49.181Z,13.10
2019-01-25T01:58:17.749Z,13.53
2019-01-25T02:00:46.359Z,13.03
2019-01-25T02:03:14.897Z,12.67
2019-01-25T02:05:43.419Z,12.80
2019-01-25T02:08:11.981Z,13.60
2019-01-25T02:10:40.501Z,14.20
2019-01-25T02:13:09.129Z,13.33
2019-01-25T02:15:37.680Z,13.73
2019-01-25T02:18:06.220Z,13.90
2019-01-25T02:20:34.805Z,13.07
2019-01-25T02:23:03.361Z,13.37
2019-01-25T02:25:33.304Z,13.30
2019-01-25T02:28:01.851Z,13.60
2019-01-25T02:30:30.390Z,13.30
2019-01-25T02:32:58.921Z,12.70
2019-01-25T02:35:27.689Z,12.53
2019-01-25T02:37:56.458Z,13.13
2019-01-25T02:40:25.749Z,12.67
2019-01-25T02:42:54.978Z,12.10
2019-01-25T02:45:24.866Z,14.37
2019-01-25T02:47:53.611Z,12.20
2019-01-25T02:50:22.461Z,12.40
2019-01-25T02:52:51.254Z,14.17
2019-01-25T02:55:20.605Z,13.57
2019-01-25T02:57:49.344Z,13.30
2019-01-25T03:00:22.007Z,13.50
2019-01-25T03:02:50.893Z,13.00
2019-01-25T03:05:19.978Z,13.53
2019-01-25T03:07:49.307Z,14.20
2019-01-25T03:10:18.169Z,12.60
2019-01-25T03:12:46.989Z,13.47
2019-01-25T03:15:17.169Z,13.10
2019-01-25T03:17:45.946Z,12.37
2019-01-25T03:20:14.697Z,15.23
2019-01-25T03:22:43.474Z,13.10
2019-01-25T03:25:13.965Z,13.30
2019-01-25T03:27:42.703Z,13.00
2019-01-25T03:30:12.373Z,13.30
2019-01-25T03:32:41.210Z,13.60
2019-01-25T03:35:10.722Z,12.43
2019-01-25T03:37:39.539Z,13.27
2019-01-25T03:40:09.036Z,14.03
2019-01-25T03:42:37.871Z,13.27
2019-01-25T03:45:06.840Z,13.23
2019-01-25T03:47:35.654Z,14.60
2019-01-25T03:50:05.812Z,13.50
2019-01-25T03:52:34.596Z,13.23
2019-01-25T03:55:03.362Z,13.90
2019-01-25T03:57:32.105Z,12.60
2019-01-25T04:00:00.891Z,12.87
2019-01-25T04:02:29.659Z,13.07
2019-01-25T04:04:58.398Z,13.33
2019-01-25T04:07:27.162Z,13.03
2019-01-25T04:09:55.903Z,13.30
2019-01-25T04:12:24.690Z,13.43
2019-01-25T04:14:53.465Z,13.87
2019-01-25T04:17:22.267Z,14.40
2019-01-25T04:19:51.299Z,14.17
2019-01-25T04:22:20.134Z,13.43
2019-01-25T04:24:48.906Z,12.80
2019-01-25T04:27:17.670Z,12.50
2019-01-25T04:29:46.449Z,13.33
2019-01-25T04:32:15.196Z,12.40
2019-01-25T04:34:44.278Z,12.27
2019-01-25T04:37:13.086Z,13.00
2019-01-25T04:39:41.827Z,13.23
2019-01-25T04:42:10.633Z,13.50
2019-01-25T04:44:39.421Z,14.20
2019-01-25T04:47:08.161Z,13.70
2019-01-25T04:49:36.947Z,13.60
2019-01-25T04:52:11.969Z,13.80
2019-01-25T04:54:40.742Z,13.47
2019-01-25T04:57:09.530Z,13.30
2019-01-25T04:59:38.330Z,14.27
2019-01-25T05:02:07.138Z,13.90
2019-01-25T05:04:36.545Z,14.27
2019-01-25T05:07:05.550Z,14.43
2019-01-25T05:09:37.895Z,12.90
2019-01-25T05:12:06.818Z,13.77
2019-01-25T05:14:35.778Z,12.40
2019-01-25T05:17:04.521Z,13.03
2019-01-25T05:19:39.726Z,12.70
2019-01-25T05:22:08.576Z,12.63
2019-01-25T05:24:37.386Z,12.87
2019-01-25T05:27:06.174Z,12.80
2019-01-25T05:30:03.076Z,13.80
2019-01-25T05:32:32.172Z,12.60
2019-01-25T05:35:00.925Z,13.10
2019-01-25T05:37:29.667Z,12.90
2019-01-25T05:39:58.823Z,12.67
2019-01-25T05:42:27.645Z,13.87
2019-01-25T05:44:56.439Z,13.00
2019-01-25T05:47:25.209Z,13.27
2019-01-25T05:49:54.059Z,12.50
2019-01-25T05:52:22.902Z,13.73
2019-01-25T05:54:51.668Z,13.73
2019-01-25T05:57:20.487Z,13.90
2019-01-25T05:59:49.262Z,13.30
2019-01-25T06:02:18.034Z,14.57
2019-01-25T06:04:46.783Z,14.43
2019-01-25T06:07:15.541Z,14.40
2019-01-25T06:09:44.362Z,12.73
2019-01-25T06:12:13.207Z,12.50
2019-01-25T06:14:41.974Z,12.00
2019-01-25T06:17:10.740Z,13.17
2019-01-25T06:19:39.524Z,14.33
2019-01-25T06:22:08.285Z,12.83
2019-01-25T06:24:37.089Z,14.13
2019-01-25T06:27:06.197Z,13.57
2019-01-25T06:29:34.934Z,13.27
2019-01-25T06:32:04.587Z,13.67
2019-01-25T06:34:33.422Z,14.13
2019-01-25T06:37:02.234Z,12.80
2019-01-25T06:39:31.040Z,13.60
2019-01-25T06:41:59.800Z,14.00
2019-01-25T06:44:28.630Z,13.03
2019-01-25T06:46:57.398Z,12.60
2019-01-25T06:49:26.162Z,14.17
2019-01-25T06:51:54.990Z,13.80
2019-01-25T06:54:23.766Z,14.90
2019-01-25T06:56:52.529Z,15.90
2019-01-25T06:59:24.402Z,13.43
2019-01-25T07:02:04.372Z,13.63
2019-01-25T07:04:33.235Z,14.33
2019-01-25T07:07:03.126Z,12.90
2019-01-25T07:09:32.934Z,13.83
2019-01-25T07:12:02.005Z,14.40
2019-01-25T07:14:30.771Z,13.67
2019-01-25T07:16:59.533Z,14.40
2019-01-25T07:19:28.317Z,13.83
2019-01-25T07:21:57.093Z,16.30
2019-01-25T07:24:25.866Z,14.87
2019-01-25T07:26:54.662Z,14.53
2019-01-25T07:29:23.501Z,14.33
2019-01-25T07:31:52.252Z,15.83
2019-01-25T07:34:21.019Z,15.77
2019-01-25T07:36:49.758Z,15.40
2019-01-25T07:39:21.523Z,15.77
2019-01-25T07:41:50.383Z,15.30
2019-01-25T07:44:19.205Z,15.80
2019-01-25T07:46:47.987Z,16.57
2019-01-25T07:49:16.982Z,16.17
2019-01-25T07:51:45.877Z,16.47
2019-01-25T07:54:14.678Z,17.43
2019-01-25T07:56:43.474Z,15.90
2019-01-25T07:59:12.383Z,15.53
2019-01-25T08:01:41.172Z,17.17
2019-01-25T08:04:09.987Z,16.97
2019-01-25T08:06:38.845Z,17.77
2019-01-25T08:09:08.691Z,15.73
2019-01-25T08:11:37.493Z,18.23
2019-01-25T08:14:06.282Z,17.60
2019-01-25T08:16:35.123Z,16.37
2019-01-25T08:19:04.173Z,17.10
2019-01-25T08:21:32.979Z,16.80
2019-01-25T08:24:01.818Z,15.67
2019-01-25T08:26:30.722Z,16.60
2019-01-25T08:28:59.466Z,16.20
2019-01-25T08:31:28.261Z,16.90
2019-01-25T08:33:57.011Z,14.70
2019-01-25T08:36:26.494Z,15.93
2019-01-25T08:38:55.302Z,16.47
2019-01-25T08:41:24.082Z,14.47
2019-01-25T08:43:52.898Z,16.30
2019-01-25T08:46:21.669Z,15.73
2019-01-25T08:48:50.504Z,15.73
2019-01-25T08:51:19.330Z,15.20
2019-01-25T08:53:48.337Z,15.50
2019-01-25T08:56:17.311Z,15.97
2019-01-25T08:58:46.057Z,14.17
2019-01-25T09:01:14.907Z,14.77
2019-01-25T09:03:44.028Z,14.27
2019-01-25T09:06:12.842Z,14.03
2019-01-25T09:08:41.586Z,14.47
2019-01-25T09:11:10.453Z,14.03
2019-01-25T09:13:39.267Z,14.20
2019-01-25T09:16:08.143Z,15.20
2019-01-25T09:18:36.881Z,14.47
2019-01-25T09:21:05.670Z,14.73
2019-01-25T09:23:34.419Z,14.10
2019-01-25T09:26:03.202Z,13.87
2019-01-25T09:28:31.977Z,15.20
2019-01-25T09:31:00.783Z,14.43
2019-01-25T09:33:29.625Z,13.80
2019-01-25T09:35:58.411Z,14.43
2019-01-25T09:38:27.168Z,14.80
2019-01-25T09:40:55.934Z,14.10
2019-01-25T09:43:24.702Z,14.43
2019-01-25T09:45:53.473Z,15.10
2019-01-25T09:48:22.302Z,14.13
2019-01-25T09:50:52.781Z,16.03
2019-01-25T09:53:21.922Z,14.03
2019-01-25T09:55:50.693Z,15.30
2019-01-25T09:58:19.530Z,16.07
2019-01-25T10:00:50.264Z,15.23
2019-01-25T10:03:19.051Z,14.60
2019-01-25T10:05:47.865Z,20.10
2019-01-25T10:08:16.615Z,16.17
2019-01-25T10:10:45.401Z,15.80
2019-01-25T10:13:14.270Z,15.03
2019-01-25T10:15:43.167Z,15.87
2019-01-25T10:18:11.974Z,14.87
2019-01-25T10:20:40.861Z,15.93
2019-01-25T10:23:09.650Z,14.63
2019-01-25T10:25:38.489Z,15.97
2019-01-25T10:28:07.275Z,15.70
2019-01-25T10:30:36.030Z,15.47
2019-01-25T10:33:04.832Z,14.40
2019-01-25T10:35:33.659Z,15.67
2019-01-25T10:38:02.466Z,14.20
2019-01-25T10:40:31.245Z,13.47
2019-01-25T10:43:00.131Z,14.13
2019-01-25T10:45:30.174Z,14.07
2019-01-25T10:47:59.007Z,13.80
2019-01-25T10:50:28.012Z,13.93
2019-01-25T10:52:56.851Z,14.63
2019-01-25T10:55:25.630Z,14.50
2019-01-25T10:57:54.543Z,13.87
2019-01-25T11:00:23.509Z,14.37
2019-01-25T11:02:58.061Z,14.10
2019-01-25T11:05:23.372Z,12.40
2019-01-25T11:07:52.258Z,11.07
2019-01-25T11:10:21.104Z,12.50
2019-01-25T11:12:49.867Z,12.93
2019-01-25T11:15:19.776Z,13.10
2019-01-25T11:17:48.649Z,13.10
2019-01-25T11:20:20.877Z,12.80
2019-01-25T11:22:49.667Z,12.73
2019-01-25T11:25:26.114Z,13.23
2019-01-25T11:27:54.915Z,12.40
2019-01-25T11:30:23.977Z,12.97
2019-01-25T11:32:54.014Z,12.23
2019-01-25T11:35:22.894Z,12.27
2019-01-25T11:37:51.845Z,12.03
2019-01-25T11:40:22.350Z,12.53
2019-01-25T11:42:51.172Z,10.97
2019-01-25T11:45:19.944Z,11.40
2019-01-25T11:47:48.722Z,9.60
2019-01-25T11:50:17.937Z,9.97
2019-01-25T11:52:46.743Z,11.33
2019-01-25T11:55:15.606Z,11.33
2019-01-25T11:57:44.363Z,10.77
2019-01-25T12:00:15.251Z,9.63
2019-01-25T12:02:44.058Z,11.77
2019-01-25T12:05:13.870Z,10.77
2019-01-25T12:07:42.781Z,10.77
2019-01-25T12:10:12.098Z,10.50
2019-01-25T12:12:40.930Z,10.40
2019-01-25T12:15:11.546Z,10.30
2019-01-25T12:17:40.343Z,8.97
2019-01-25T12:20:10.886Z,10.97
2019-01-25T12:22:39.735Z,10.60
2019-01-25T12:25:09.158Z,10.50
2019-01-25T12:27:38.018Z,9.83
2019-01-25T12:30:09.239Z,12.50
2019-01-25T12:32:38.054Z,9.50
2019-01-25T12:35:07.971Z,10.33
2019-01-25T12:37:36.706Z,10.03
2019-01-25T12:40:06.484Z,9.70
2019-01-25T12:42:35.457Z,11.40
2019-01-25T12:45:04.877Z,11.77
2019-01-25T12:47:33.669Z,10.37
2019-01-25T12:50:02.738Z,9.83
2019-01-25T12:52:31.517Z,9.87
2019-01-25T12:55:00.262Z,10.00
2019-01-25T12:57:29.046Z,9.43
2019-01-25T12:59:57.832Z,10.00
2019-01-25T13:02:26.618Z,9.20
2019-01-25T13:04:55.427Z,10.63
2019-01-25T13:07:24.215Z,9.37
2019-01-25T13:09:53.027Z,10.53
2019-01-25T13:12:25.211Z,10.70
2019-01-25T13:14:52.269Z,11.20
2019-01-25T13:17:21.063Z,10.83
2019-01-25T13:19:49.929Z,10.27
2019-01-25T13:22:18.822Z,11.50
2019-01-25T13:24:47.634Z,11.73
2019-01-25T13:27:16.447Z,11.17
2019-01-25T13:29:45.300Z,10.47
2019-01-25T13:32:14.668Z,10.77
2019-01-25T13:34:44.634Z,11.53
2019-01-25T13:37:13.450Z,12.33
2019-01-25T13:39:42.311Z,10.57
2019-01-25T13:42:11.182Z,12.37
2019-01-25T13:44:40.002Z,12.43
2019-01-25T13:47:08.880Z,11.37
2019-01-25T13:49:37.691Z,11.07
2019-01-25T13:52:06.445Z,11.60
2019-01-25T13:54:54.347Z,11.57
2019-01-25T13:57:23.229Z,11.53
2019-01-25T13:59:51.973Z,12.33
2019-01-25T14:02:20.781Z,13.07
2019-01-25T14:04:49.625Z,12.33
2019-01-25T14:07:21.041Z,12.63
2019-01-25T14:09:49.095Z,12.30
2019-01-25T14:12:17.940Z,12.57
2019-01-25T14:14:46.750Z,13.50
2019-01-25T14:17:15.514Z,12.50
2019-01-25T14:19:44.281Z,13.57
2019-01-25T14:22:13.032Z,13.27
2019-01-25T14:24:41.843Z,12.33
2019-01-25T14:27:10.585Z,13.07
2019-01-25T14:29:39.377Z,12.03
2019-01-25T14:32:08.243Z,12.97
2019-01-25T14:34:37.067Z,13.00
2019-01-25T14:37:05.939Z,14.93
2019-01-25T14:39:34.727Z,12.57
2019-01-25T14:42:03.573Z,13.33
2019-01-25T14:44:32.324Z,14.00
2019-01-25T14:47:01.175Z,12.53
2019-01-25T14:49:29.959Z,15.37
2019-01-25T14:51:59.006Z,13.77
2019-01-25T14:54:27.770Z,12.07
2019-01-25T14:56:56.519Z,12.87
2019-01-25T14:59:25.431Z,12.47
2019-01-25T15:01:54.210Z,13.60
2019-01-25T15:04:23.367Z,15.17
2019-01-25T15:06:52.113Z,14.00
2019-01-25T15:09:20.885Z,14.37
2019-01-25T15:11:49.700Z,15.13
2019-01-25T15:14:18.476Z,14.10
2019-01-25T15:16:47.214Z,15.03
2019-01-25T15:19:16.031Z,13.77
2019-01-25T15:21:44.823Z,13.80
2019-01-25T15:24:13.592Z,13.43
2019-01-25T15:26:42.368Z,14.63
2019-01-25T15:29:11.126Z,13.90
2019-01-25T15:31:40.007Z,14.13
2019-01-25T15:34:08.750Z,14.63
2019-01-25T15:36:37.518Z,14.20
2019-01-25T15:39:07.599Z,14.77
2019-01-25T15:41:36.354Z,15.37
2019-01-25T15:44:10.005Z,15.50
2019-01-25T15:46:35.606Z,15.20
2019-01-25T15:49:04.613Z,15.20
2019-01-25T15:51:33.396Z,14.67
2019-01-25T15:54:02.196Z,14.23
2019-01-25T15:56:30.943Z,14.60
2019-01-25T15:58:59.705Z,15.13
2019-01-25T16:01:28.478Z,15.70
2019-01-25T16:03:57.530Z,16.30
2019-01-25T16:06:26.341Z,15.53
2019-01-25T16:08:55.126Z,16.10
2019-01-25T16:11:23.925Z,15.27
2019-01-25T16:13:52.799Z,15.33
2019-01-25T16:16:21.541Z,14.67
2019-01-25T16:18:50.309Z,14.90
2019-01-25T16:21:19.097Z,15.00
2019-01-25T16:23:48.198Z,15.70
2019-01-25T16:26:16.977Z,15.30
2019-01-25T16:28:45.803Z,17.23
2019-01-25T16:31:14.593Z,14.57
2019-01-25T16:33:43.342Z,15.17
2019-01-25T16:36:12.101Z,14.43
2019-01-25T16:38:40.888Z,14.90
2019-01-25T16:41:09.666Z,14.73
2019-01-25T16:43:38.551Z,14.97
2019-01-25T16:46:07.320Z,15.73
2019-01-25T16:48:36.074Z,14.67
2019-01-25T16:51:04.987Z,15.40
2019-01-25T16:53:33.756Z,14.10
2019-01-25T16:56:02.636Z,14.97
2019-01-25T16:58:31.445Z,16.03
2019-01-25T17:01:00.238Z,14.97
2019-01-25T17:03:29.084Z,15.93
2019-01-25T17:05:57.970Z,15.17
2019-01-25T17:08:26.745Z,15.20
2019-01-25T17:10:55.515Z,14.30
2019-01-25T17:13:24.275Z,14.77
2019-01-25T17:15:55.228Z,15.57
2019-01-25T17:18:23.572Z,15.40
2019-01-25T17:20:52.309Z,15.50
2019-01-25T17:23:21.154Z,15.50
2019-01-25T17:25:50.014Z,14.93
2019-01-25T17:28:18.758Z,15.53
2019-01-25T17:30:47.622Z,15.87
2019-01-25T17:33:16.510Z,16.00
2019-01-25T17:35:45.258Z,16.27
2019-01-25T17:38:14.022Z,15.57
2019-01-25T17:40:46.664Z,16.83
2019-01-25T17:43:14.987Z,16.13
2019-01-25T17:45:43.771Z,15.47
2019-01-25T17:48:12.551Z,15.77
2019-01-25T17:50:41.410Z,16.10
2019-01-25T17:53:10.276Z,16.27
2019-01-25T17:55:39.115Z,17.00
2019-01-25T17:58:08.468Z,16.23
2019-01-25T18:00:53.297Z,15.43
2019-01-25T18:03:22.397Z,15.30
2019-01-25T18:05:51.253Z,16.27
2019-01-25T18:08:19.998Z,15.30
2019-01-25T18:10:48.775Z,14.63
2019-01-25T18:13:17.534Z,15.40
2019-01-25T18:15:46.733Z,16.77
2019-01-25T18:18:15.551Z,16.07
2019-01-25T18:20:44.348Z,16.50
2019-01-25T18:23:13.494Z,16.13
2019-01-25T18:25:52.714Z,17.07
2019-01-25T18:28:29.420Z,17.03
2019-01-25T18:30:59.782Z,15.93
2019-01-25T18:33:28.526Z,15.90
2019-01-25T18:35:57.326Z,16.37
2019-01-25T18:38:26.077Z,15.87
2019-01-25T18:40:55.020Z,16.37
2019-01-25T18:43:23.754Z,17.50
2019-01-25T18:45:52.490Z,17.60
2019-01-25T18:48:21.266Z,16.80
2019-01-25T18:50:50.163Z,16.70
2019-01-25T18:53:18.955Z,16.67
2019-01-25T18:55:47.726Z,17.37
2019-01-25T18:58:16.581Z,16.53
2019-01-25T19:00:45.586Z,17.33
2019-01-25T19:03:14.332Z,17.87
2019-01-25T19:05:43.072Z,16.27
2019-01-25T19:08:11.841Z,19.13
2019-01-25T19:10:40.618Z,17.27
2019-01-25T19:13:09.398Z,16.17
2019-01-25T19:15:38.183Z,17.17
2019-01-25T19:18:06.971Z,16.67
2019-01-25T19:20:35.773Z,16.07
2019-01-25T19:23:04.607Z,16.47
2019-01-25T19:25:34.886Z,17.73
2019-01-25T19:28:03.733Z,17.00
2019-01-25T19:30:34.334Z,17.17
2019-01-25T19:33:03.352Z,17.23
2019-01-25T19:35:36.718Z,16.07
2019-01-25T19:38:06.118Z,15.10
2019-01-25T19:40:34.975Z,18.10
2019-01-25T19:43:04.142Z,17.93
2019-01-25T19:45:32.967Z,17.13
2019-01-25T19:48:01.754Z,17.80
2019-01-25T19:50:30.707Z,16.87
2019-01-25T19:52:59.654Z,16.23
2019-01-25T19:55:28.433Z,16.53
2019-01-25T19:57:57.590Z,16.07
2019-01-25T20:00:27.738Z,15.53
2019-01-25T20:02:56.546Z,16.73
2019-01-25T20:05:26.123Z,14.80
2019-01-25T20:07:55.007Z,15.13
2019-01-25T20:10:23.990Z,15.30
2019-01-25T20:12:53.241Z,15.03
2019-01-25T20:15:22.001Z,15.20
2019-01-25T20:17:50.877Z,14.57
2019-01-25T20:20:20.910Z,13.40
2019-01-25T20:22:49.687Z,14.60
2019-01-25T20:25:19.783Z,13.47
2019-01-25T20:27:48.942Z,10.97
2019-01-25T20:30:22.234Z,12.60
2019-01-25T20:32:51.059Z,12.20
2019-01-25T20:35:20.682Z,12.27
2019-01-25T20:37:49.560Z,12.20
2019-01-25T20:40:18.640Z,11.13
2019-01-25T20:42:49.085Z,11.43
2019-01-25T20:45:19.264Z,12.33
2019-01-25T20:47:48.010Z,12.10
2019-01-25T20:50:18.053Z,13.37
2019-01-25T20:52:46.797Z,12.33
2019-01-25T20:55:16.226Z,11.77
2019-01-25T20:57:44.974Z,12.03
2019-01-25T21:00:24.067Z,11.30
2019-01-25T21:02:52.901Z,11.63
2019-01-25T21:05:21.725Z,12.03
2019-01-25T21:07:50.555Z,11.90
2019-01-25T21:10:19.902Z,12.50
2019-01-25T21:12:48.711Z,12.80
2019-01-25T21:15:18.202Z,11.53
2019-01-25T21:17:47.019Z,11.90
2019-01-25T21:20:17.273Z,9.73
2019-01-25T21:22:46.042Z,11.20
2019-01-25T21:25:14.791Z,11.03
2019-01-25T21:27:43.656Z,10.30
2019-01-25T21:30:14.270Z,11.00
2019-01-25T21:32:43.062Z,10.60
2019-01-25T21:35:11.922Z,10.63
2019-01-25T21:37:40.806Z,11.27
2019-01-25T21:40:11.166Z,10.83
2019-01-25T21:42:39.951Z,10.77
2019-01-25T21:45:10.266Z,11.33
2019-01-25T21:47:39.038Z,9.37
2019-01-25T21:50:08.913Z,10.83
2019-01-25T21:52:37.971Z,12.30
2019-01-25T21:55:07.654Z,11.10
2019-01-25T21:57:36.442Z,9.80
2019-01-25T22:00:07.062Z,10.80
2019-01-25T22:02:36.950Z,10.23
2019-01-25T22:05:06.149Z,10.67
2019-01-25T22:07:34.884Z,11.50
2019-01-25T22:10:04.111Z,10.50
2019-01-25T22:12:32.941Z,10.47
2019-01-25T22:15:01.711Z,10.37
2019-01-25T22:17:30.562Z,9.83
2019-01-25T22:19:59.408Z,10.30
2019-01-25T22:22:28.214Z,10.53
2019-01-25T22:24:57.054Z,10.20
2019-01-25T22:27:25.866Z,10.50
2019-01-25T22:29:54.786Z,10.63
2019-01-25T22:32:25.946Z,11.47
2019-01-25T22:34:54.817Z,11.17
2019-01-25T22:37:23.658Z,10.80
2019-01-25T22:39:52.454Z,10.77
2019-01-25T22:42:21.258Z,11.10
2019-01-25T22:44:50.053Z,10.20
2019-01-25T22:47:20.468Z,11.50
2019-01-25T22:49:49.388Z,11.53
2019-01-25T22:52:18.185Z,10.40
2019-01-25T22:54:46.930Z,10.73
2019-01-25T22:57:15.830Z,12.23
2019-01-25T22:59:44.609Z,10.90
2019-01-25T23:02:13.557Z,11.10
2019-01-25T23:05:02.914Z,11.57
2019-01-25T23:07:32.353Z,10.80
2019-01-25T23:10:11.617Z,10.80
2019-01-25T23:12:40.454Z,11.57
2019-01-25T23:15:10.696Z,12.30
2019-01-25T23:17:39.451Z,11.17
2019-01-25T23:22:38.731Z,11.47
2019-01-25T23:25:08.097Z,10.03
2019-01-25T23:27:36.862Z,11.03
2019-01-25T23:30:08.122Z,10.63
2019-01-25T23:32:36.950Z,10.93
2019-01-25T23:35:05.934Z,11.73
2019-01-25T23:37:34.677Z,10.53
2019-01-25T23:40:04.476Z,12.00
2019-01-25T23:42:33.250Z,12.10
2019-01-25T23:45:02.318Z,11.60
2019-01-25T23:47:31.086Z,12.63
2019-01-25T23:49:59.861Z,13.13
2019-01-25T23:52:28.663Z,13.27
2019-01-25T23:54:57.417Z,13.20
2019-01-25T23:57:26.206Z,12.27
2019-01-25T23:59:55.054Z,13.10
